SCVD/ZAL METAR and TAF weather

Enter ICAO airport designator
Station Type Date Time Source
SCVD METAR 2021/09/24 04:00 UTC NOAA

SCVD 240400Z AUTO 00000KT 7000 NCD 05/05 Q1018


Station Type Date Time Source
SCVD Decoded METAR 2021/09/24 04:00 UTC NOAA

Valdivia, Chile (SCVD) 39-37S 073-05W
Sep 24, 2021 - 12:00 AM EDT / 2021.09.24 0400 UTC
Wind: Calm:0
Visibility: 4 mile(s):0
Temperature: 41 F (5 C)
Dew Point: 41 F (5 C)
Relative Humidity: 100%
Pressure (altimeter): 30.06 in. Hg (1018 hPa)
ob: SCVD 240400Z AUTO 00000KT 7000 NCD 05/05 Q1018
cycle: 4

Station Type Date Time Source
SCVD TAF 2021/09/23 12:00 UTC NOAA

TAF SCVD 231008Z 2312/2324 VRB02KT 0700 FG SCT002 BKN005 TN05/2312Z TX18/2318Z
BECMG 2312/2314 9999 NSW FEW013 SCT018 SCT200
BECMG 2315/2317 24008KT CAVOK
BECMG 2322/2324 VRB02KT

Example: see airport list